createdAt,value
2023-01-29T00:02:12.079Z,3.80
2023-01-29T00:04:39.651Z,3.80
2023-01-29T00:07:07.040Z,3.80
2023-01-29T00:09:33.764Z,3.70
2023-01-29T00:12:00.559Z,3.70
2023-01-29T00:14:29.994Z,3.70
2023-01-29T00:16:56.737Z,3.60
2023-01-29T00:19:23.549Z,3.70
2023-01-29T00:21:50.275Z,3.60
2023-01-29T00:24:18.411Z,3.60
2023-01-29T00:26:45.315Z,3.50
2023-01-29T00:29:12.298Z,3.60
2023-01-29T00:31:39.136Z,3.50
2023-01-29T00:34:05.849Z,3.50
2023-01-29T00:36:32.551Z,3.50
2023-01-29T00:39:02.933Z,3.50
2023-01-29T00:41:51.763Z,3.50
2023-01-29T00:44:37.656Z,3.50
2023-01-29T00:47:25.760Z,3.50
2023-01-29T00:49:53.836Z,3.50
2023-01-29T00:52:26.563Z,3.40
2023-01-29T00:54:54.367Z,3.40
2023-01-29T00:57:23.331Z,3.30
2023-01-29T00:59:50.952Z,3.30
2023-01-29T01:02:38.038Z,3.30
2023-01-29T01:05:07.908Z,3.30
2023-01-29T01:07:34.652Z,3.30
2023-01-29T01:10:19.856Z,3.30
2023-01-29T01:12:58.188Z,3.30
2023-01-29T01:15:27.915Z,3.30
2023-01-29T01:18:00.217Z,3.30
2023-01-29T01:20:28.686Z,3.20
2023-01-29T01:22:56.422Z,3.30
2023-01-29T01:25:24.697Z,3.20
2023-01-29T01:27:57.836Z,3.20
2023-01-29T01:30:26.937Z,3.20
2023-01-29T01:32:53.934Z,3.20
2023-01-29T01:35:20.954Z,3.20
2023-01-29T01:37:47.691Z,3.10
2023-01-29T01:40:22.976Z,3.10
2023-01-29T01:42:56.160Z,3.10
2023-01-29T01:45:30.623Z,3.10
2023-01-29T01:48:19.086Z,3.10
2023-01-29T01:51:03.447Z,3.10
2023-01-29T01:53:34.443Z,3.00
2023-01-29T01:56:06.121Z,3.00
2023-01-29T01:58:47.915Z,3.00
2023-01-29T02:01:14.832Z,3.00
2023-01-29T02:04:07.626Z,3.00
2023-01-29T02:06:54.549Z,2.90
2023-01-29T02:09:38.969Z,3.00
2023-01-29T02:12:09.547Z,2.90
2023-01-29T02:14:40.611Z,2.90
2023-01-29T02:17:19.500Z,2.90
2023-01-29T02:20:32.984Z,2.90
2023-01-29T02:23:35.293Z,2.90
2023-01-29T02:26:27.104Z,2.80
2023-01-29T02:29:22.896Z,2.80
2023-01-29T02:32:03.850Z,2.80
2023-01-29T02:35:12.645Z,2.80
2023-01-29T02:37:57.333Z,2.80
2023-01-29T02:40:34.198Z,2.70
2023-01-29T02:43:26.610Z,2.70
2023-01-29T02:46:18.810Z,2.70
2023-01-29T02:48:56.150Z,2.70
2023-01-29T02:51:39.514Z,2.70
2023-01-29T02:54:40.093Z,2.70
2023-01-29T02:57:23.280Z,2.70
2023-01-29T02:59:55.527Z,2.60
2023-01-29T03:02:46.912Z,2.60
2023-01-29T03:05:20.599Z,2.60
2023-01-29T03:07:53.811Z,2.50
2023-01-29T03:10:37.820Z,2.60
2023-01-29T03:13:13.595Z,2.60
2023-01-29T03:15:46.926Z,2.60
2023-01-29T03:18:23.069Z,2.60
2023-01-29T03:20:58.473Z,2.60
2023-01-29T03:23:50.541Z,2.50
2023-01-29T03:26:39.953Z,2.60
2023-01-29T03:29:27.682Z,2.50
2023-01-29T03:32:06.811Z,2.50
2023-01-29T03:34:42.101Z,2.50
2023-01-29T03:37:35.092Z,2.50
2023-01-29T03:40:04.418Z,2.50
2023-01-29T03:42:57.249Z,2.50
2023-01-29T03:45:35.563Z,2.50
2023-01-29T03:48:08.951Z,2.50
2023-01-29T03:50:52.861Z,2.50
2023-01-29T03:53:30.552Z,2.50
2023-01-29T03:56:18.494Z,2.50
2023-01-29T03:58:54.170Z,2.50
2023-01-29T04:01:31.976Z,2.50
2023-01-29T04:04:05.586Z,2.50
2023-01-29T04:06:36.037Z,2.50
2023-01-29T04:09:22.253Z,2.50
2023-01-29T04:11:56.986Z,2.60
2023-01-29T04:14:23.892Z,2.40
2023-01-29T04:16:55.858Z,2.40
2023-01-29T04:19:23.849Z,2.40
2023-01-29T04:21:58.329Z,2.40
2023-01-29T04:24:25.180Z,2.30
2023-01-29T04:27:05.147Z,2.30
2023-01-29T04:30:02.434Z,2.30
2023-01-29T04:32:38.887Z,2.30
2023-01-29T04:35:18.646Z,2.30
2023-01-29T04:37:57.548Z,2.30
2023-01-29T04:40:37.651Z,2.30
2023-01-29T04:43:21.438Z,2.30
2023-01-29T04:46:24.438Z,2.30
2023-01-29T04:49:16.427Z,2.30
2023-01-29T04:51:58.191Z,2.20
2023-01-29T04:54:32.409Z,2.20
2023-01-29T04:57:23.171Z,2.20
2023-01-29T05:00:00.067Z,2.20
2023-01-29T05:02:28.418Z,2.10
2023-01-29T05:04:57.476Z,2.10
2023-01-29T05:07:27.178Z,2.10
2023-01-29T05:09:54.939Z,2.10
2023-01-29T05:12:25.289Z,2.20
2023-01-29T05:14:55.985Z,2.20
2023-01-29T05:17:22.712Z,2.20
2023-01-29T05:19:49.483Z,2.20
2023-01-29T05:22:19.048Z,2.20
2023-01-29T05:24:46.612Z,2.20
2023-01-29T05:27:41.622Z,2.20
2023-01-29T05:30:10.383Z,2.20
2023-01-29T05:32:40.097Z,2.20
2023-01-29T05:35:07.182Z,2.20
2023-01-29T05:37:33.856Z,2.10
2023-01-29T05:40:00.517Z,2.00
2023-01-29T05:42:27.425Z,1.80
2023-01-29T05:44:54.387Z,1.70
2023-01-29T05:47:21.533Z,1.70
2023-01-29T05:49:49.285Z,1.70
2023-01-29T05:52:16.279Z,1.70
2023-01-29T05:54:43.339Z,1.70
2023-01-29T05:57:10.198Z,1.70
2023-01-29T05:59:37.005Z,1.70
2023-01-29T06:02:03.845Z,1.70
2023-01-29T06:04:30.636Z,1.70
2023-01-29T06:06:58.566Z,1.80
2023-01-29T06:09:25.315Z,1.70
2023-01-29T06:11:52.054Z,1.70
2023-01-29T06:14:18.729Z,1.60
2023-01-29T06:16:45.611Z,1.60
2023-01-29T06:19:12.286Z,1.50
2023-01-29T06:21:39.467Z,1.50
2023-01-29T06:24:07.647Z,1.50
2023-01-29T06:26:35.088Z,1.50
2023-01-29T06:29:03.066Z,1.40
2023-01-29T06:31:38.271Z,1.40
2023-01-29T06:34:06.681Z,1.30
2023-01-29T06:36:33.480Z,1.20
2023-01-29T06:39:00.417Z,1.20
2023-01-29T06:41:29.063Z,1.10
2023-01-29T06:43:55.873Z,1.10
2023-01-29T06:46:22.598Z,1.20
2023-01-29T06:48:49.372Z,1.20
2023-01-29T06:51:16.140Z,1.20
2023-01-29T06:53:44.738Z,1.20
2023-01-29T06:56:12.704Z,1.10
2023-01-29T06:58:40.039Z,1.10
2023-01-29T07:01:09.038Z,1.10
2023-01-29T07:03:36.557Z,1.00
2023-01-29T07:06:03.726Z,1.10
2023-01-29T07:08:32.342Z,1.10
2023-01-29T07:11:02.889Z,1.20
2023-01-29T07:13:29.726Z,1.30
2023-01-29T07:16:01.206Z,1.30
2023-01-29T07:18:29.004Z,1.50
2023-01-29T07:20:55.884Z,1.40
2023-01-29T07:23:22.946Z,1.40
2023-01-29T07:25:50.270Z,1.50
2023-01-29T07:28:18.361Z,1.50
2023-01-29T07:30:45.177Z,1.50
2023-01-29T07:33:12.077Z,1.50
2023-01-29T07:35:40.605Z,1.50
2023-01-29T07:38:09.979Z,1.50
2023-01-29T07:40:37.251Z,1.50
2023-01-29T07:43:06.159Z,1.50
2023-01-29T07:45:35.215Z,1.50
2023-01-29T07:48:02.137Z,1.50
2023-01-29T07:50:31.039Z,1.60
2023-01-29T07:52:58.695Z,1.70
2023-01-29T07:55:26.696Z,1.70
2023-01-29T07:57:57.135Z,1.70
2023-01-29T08:00:24.478Z,1.80
2023-01-29T08:02:51.775Z,1.90
2023-01-29T08:05:19.220Z,1.90
2023-01-29T08:07:51.551Z,2.00
2023-01-29T08:10:28.100Z,1.90
2023-01-29T08:12:59.513Z,1.90
2023-01-29T08:15:28.199Z,1.80
2023-01-29T08:20:42.142Z,1.70
2023-01-29T08:23:13.966Z,1.70
2023-01-29T08:25:41.128Z,1.70
2023-01-29T08:28:08.756Z,1.70
2023-01-29T08:30:37.124Z,1.70
2023-01-29T08:33:04.655Z,1.60
2023-01-29T08:35:31.760Z,1.60
2023-01-29T08:38:00.948Z,1.60
2023-01-29T08:40:30.544Z,1.70
2023-01-29T08:43:09.477Z,1.70
2023-01-29T08:45:39.897Z,1.70
2023-01-29T08:48:10.572Z,1.80
2023-01-29T08:50:38.276Z,1.80
2023-01-29T08:53:09.998Z,1.90
2023-01-29T08:55:38.339Z,1.90
2023-01-29T08:58:06.382Z,1.90
2023-01-29T09:00:34.301Z,1.90
2023-01-29T09:03:01.708Z,1.80
2023-01-29T09:05:28.674Z,1.80
2023-01-29T09:07:58.824Z,1.80
2023-01-29T09:10:26.849Z,1.80
2023-01-29T09:12:53.602Z,1.80
2023-01-29T09:15:20.786Z,1.80
2023-01-29T09:17:49.448Z,1.80
2023-01-29T09:20:16.675Z,1.80
2023-01-29T09:22:44.086Z,1.80
2023-01-29T09:25:11.241Z,1.70
2023-01-29T09:27:39.250Z,1.70
2023-01-29T09:30:06.821Z,1.80
2023-01-29T09:32:52.787Z,1.80
2023-01-29T09:35:27.201Z,1.80
2023-01-29T09:37:54.129Z,1.80
2023-01-29T09:40:43.617Z,1.80
2023-01-29T09:43:24.754Z,1.80
2023-01-29T09:46:21.884Z,1.80
2023-01-29T09:48:56.861Z,1.80
2023-01-29T09:51:38.465Z,1.80
2023-01-29T09:54:24.747Z,1.80
2023-01-29T09:56:56.171Z,1.80
2023-01-29T09:59:29.730Z,1.80
2023-01-29T10:02:20.989Z,1.90
2023-01-29T10:05:09.568Z,1.90
2023-01-29T10:08:03.372Z,2.00
2023-01-29T10:10:54.525Z,2.00
2023-01-29T10:13:40.159Z,2.00
2023-01-29T10:16:19.280Z,2.10
2023-01-29T10:19:02.165Z,2.20
2023-01-29T10:21:57.224Z,2.20
2023-01-29T10:24:40.828Z,2.30
2023-01-29T10:27:17.743Z,2.30
2023-01-29T10:29:47.238Z,2.40
2023-01-29T10:32:19.637Z,2.40
2023-01-29T10:35:00.814Z,2.40
2023-01-29T10:37:40.728Z,2.50
2023-01-29T10:40:44.078Z,2.50
2023-01-29T10:43:22.334Z,2.60
2023-01-29T10:46:04.305Z,2.60
2023-01-29T10:48:47.786Z,2.70
2023-01-29T10:51:38.646Z,2.70
2023-01-29T10:54:30.403Z,2.80
2023-01-29T10:57:20.969Z,2.90
2023-01-29T11:00:11.794Z,3.00
2023-01-29T11:02:45.898Z,3.10
2023-01-29T11:05:39.041Z,3.30
2023-01-29T11:08:16.979Z,3.40
2023-01-29T11:11:06.613Z,3.50
2023-01-29T11:13:57.484Z,3.70
2023-01-29T11:16:24.705Z,3.70
2023-01-29T11:19:01.662Z,3.70
2023-01-29T11:21:30.065Z,3.70
2023-01-29T11:24:16.780Z,3.70
2023-01-29T11:26:46.182Z,3.70
2023-01-29T11:29:45.904Z,3.70
2023-01-29T11:32:24.873Z,3.70
2023-01-29T11:34:58.828Z,3.70
2023-01-29T11:37:32.089Z,3.90
2023-01-29T11:39:59.023Z,3.70
2023-01-29T11:42:35.702Z,3.60
2023-01-29T11:45:02.453Z,3.70
2023-01-29T11:47:33.261Z,3.70
2023-01-29T11:50:02.704Z,3.70
2023-01-29T11:52:40.984Z,3.80
2023-01-29T11:55:18.746Z,3.80
2023-01-29T11:57:55.136Z,3.80
2023-01-29T12:00:28.982Z,3.80
2023-01-29T12:02:57.876Z,3.90
2023-01-29T12:05:29.885Z,3.90
2023-01-29T12:08:00.427Z,4.00
2023-01-29T12:10:41.927Z,4.00
2023-01-29T12:13:12.109Z,4.00
2023-01-29T12:15:40.621Z,4.10
2023-01-29T12:18:24.705Z,4.10
2023-01-29T12:21:04.731Z,4.10
2023-01-29T12:23:51.520Z,4.20
2023-01-29T12:26:30.721Z,4.20
2023-01-29T12:29:18.163Z,4.20
2023-01-29T12:32:19.976Z,4.20
2023-01-29T12:35:23.426Z,4.20
2023-01-29T12:38:18.116Z,4.20
2023-01-29T12:40:44.731Z,4.30
2023-01-29T12:43:17.336Z,4.20
2023-01-29T12:45:47.912Z,4.20
2023-01-29T12:48:23.741Z,4.20
2023-01-29T12:50:52.909Z,4.30
2023-01-29T12:53:37.612Z,4.50
2023-01-29T12:56:15.258Z,4.50
2023-01-29T12:58:48.190Z,4.50
2023-01-29T13:01:52.586Z,4.60
2023-01-29T13:04:43.954Z,4.70
2023-01-29T13:07:19.042Z,4.70
2023-01-29T13:09:56.415Z,4.70
2023-01-29T13:12:25.133Z,4.70
2023-01-29T13:14:59.419Z,4.70
2023-01-29T13:17:46.739Z,4.70
2023-01-29T13:20:24.991Z,4.60
2023-01-29T13:22:55.827Z,4.70
2023-01-29T13:25:22.961Z,4.60
2023-01-29T13:27:50.773Z,4.60
2023-01-29T13:30:32.448Z,4.60
2023-01-29T13:33:11.453Z,4.70
2023-01-29T13:35:54.358Z,4.70
2023-01-29T13:38:31.451Z,4.70
2023-01-29T13:41:04.128Z,4.80
2023-01-29T13:43:38.567Z,4.80
2023-01-29T13:46:14.335Z,4.90
2023-01-29T13:48:49.714Z,5.00
2023-01-29T13:51:23.374Z,5.00
2023-01-29T13:54:02.025Z,5.00
2023-01-29T13:56:44.074Z,5.00
2023-01-29T13:59:23.133Z,4.90
2023-01-29T14:02:04.066Z,4.80
2023-01-29T14:04:32.818Z,4.80
2023-01-29T14:07:03.547Z,4.80
2023-01-29T14:09:37.278Z,4.80
2023-01-29T14:12:27.831Z,4.80
2023-01-29T14:14:57.390Z,4.80
2023-01-29T14:17:26.965Z,4.80
2023-01-29T14:20:17.194Z,4.80
2023-01-29T14:22:44.229Z,4.80
2023-01-29T14:25:20.067Z,4.80
2023-01-29T14:27:50.189Z,4.80
2023-01-29T14:30:19.699Z,4.80
2023-01-29T14:32:59.771Z,4.80
2023-01-29T14:35:35.110Z,4.80
2023-01-29T14:38:06.079Z,4.70
2023-01-29T14:40:35.751Z,4.70
2023-01-29T14:43:12.721Z,4.70
2023-01-29T14:45:41.930Z,4.80
2023-01-29T14:48:13.787Z,4.80
2023-01-29T14:50:45.033Z,4.80
2023-01-29T14:53:50.298Z,4.80
2023-01-29T14:56:18.744Z,4.80
2023-01-29T14:58:49.968Z,4.80
2023-01-29T15:01:38.007Z,4.80
2023-01-29T15:04:24.734Z,4.90
2023-01-29T15:07:22.223Z,4.90
2023-01-29T15:10:13.593Z,4.90
2023-01-29T15:13:05.286Z,4.90
2023-01-29T15:15:49.637Z,5.00
2023-01-29T15:18:23.743Z,5.10
2023-01-29T15:21:05.787Z,5.10
2023-01-29T15:23:35.231Z,5.20
2023-01-29T15:26:06.002Z,5.20
2023-01-29T15:28:34.720Z,5.30
2023-01-29T15:31:06.374Z,5.30
2023-01-29T15:33:34.903Z,5.30
2023-01-29T15:36:08.425Z,5.40
2023-01-29T15:38:36.425Z,5.40
2023-01-29T15:41:17.250Z,5.40
2023-01-29T15:43:46.208Z,5.40
2023-01-29T15:46:34.492Z,5.50
2023-01-29T15:49:08.546Z,5.50
2023-01-29T15:51:36.127Z,5.50
2023-01-29T15:54:05.740Z,5.50
2023-01-29T15:56:39.891Z,5.50
2023-01-29T15:59:12.769Z,5.50
2023-01-29T16:01:39.647Z,5.40
2023-01-29T16:04:14.376Z,5.40
2023-01-29T16:06:42.852Z,5.40
2023-01-29T16:09:17.525Z,5.30
2023-01-29T16:11:48.043Z,5.30
2023-01-29T16:14:19.165Z,5.30
2023-01-29T16:16:48.654Z,5.30
2023-01-29T16:19:30.027Z,5.30
2023-01-29T16:22:06.252Z,5.20
2023-01-29T16:24:37.019Z,5.30
2023-01-29T16:27:12.661Z,5.20
2023-01-29T16:29:39.788Z,5.20
2023-01-29T16:32:11.893Z,5.20
2023-01-29T16:34:44.491Z,5.20
2023-01-29T16:37:40.490Z,5.20
2023-01-29T16:40:25.173Z,5.10
2023-01-29T16:43:28.386Z,5.20
2023-01-29T16:46:36.556Z,5.10
2023-01-29T16:49:29.368Z,5.10
2023-01-29T16:52:16.088Z,5.10
2023-01-29T16:54:43.563Z,5.10
2023-01-29T16:57:26.006Z,5.10
2023-01-29T16:59:55.539Z,5.10
2023-01-29T17:02:24.366Z,5.00
2023-01-29T17:04:53.789Z,5.00
2023-01-29T17:07:22.403Z,5.00
2023-01-29T17:09:53.881Z,5.10
2023-01-29T17:12:24.137Z,5.10
2023-01-29T17:15:01.024Z,5.10
2023-01-29T17:17:33.859Z,5.10
2023-01-29T17:20:14.069Z,5.10
2023-01-29T17:22:41.030Z,5.10
2023-01-29T17:25:09.820Z,5.10
2023-01-29T17:27:45.611Z,5.10
2023-01-29T17:30:18.017Z,5.10
2023-01-29T17:32:47.823Z,5.00
2023-01-29T17:35:19.501Z,5.00
2023-01-29T17:37:47.527Z,4.90
2023-01-29T17:40:21.889Z,4.90
2023-01-29T17:42:56.383Z,4.90
2023-01-29T17:45:23.241Z,4.80
2023-01-29T17:47:50.525Z,4.70
2023-01-29T17:50:25.744Z,4.70
2023-01-29T17:52:53.849Z,4.60
2023-01-29T17:55:20.761Z,4.50
2023-01-29T17:57:50.215Z,4.50
2023-01-29T18:00:20.453Z,4.50
2023-01-29T18:02:48.752Z,4.40
2023-01-29T18:05:20.018Z,4.30
2023-01-29T18:07:47.779Z,4.20
2023-01-29T18:10:21.629Z,4.00
2023-01-29T18:12:51.831Z,3.90
2023-01-29T18:15:20.108Z,3.80
2023-01-29T18:17:48.442Z,3.70
2023-01-29T18:20:23.767Z,3.60
2023-01-29T18:22:50.842Z,3.60
2023-01-29T18:25:18.262Z,3.60
2023-01-29T18:27:46.273Z,3.60
2023-01-29T18:30:13.908Z,3.60
2023-01-29T18:32:42.046Z,3.60
2023-01-29T18:35:09.985Z,3.60
2023-01-29T18:37:36.693Z,3.60
2023-01-29T18:40:04.080Z,3.50
2023-01-29T18:42:35.976Z,3.60
2023-01-29T18:45:03.813Z,3.60
2023-01-29T18:47:30.642Z,3.70
2023-01-29T18:49:58.448Z,3.70
2023-01-29T18:52:26.245Z,3.70
2023-01-29T18:54:53.798Z,3.80
2023-01-29T18:58:26.332Z,3.80
2023-01-29T19:00:08.391Z,3.80
2023-01-29T19:02:35.641Z,3.90
2023-01-29T19:05:02.852Z,4.00
2023-01-29T19:07:31.027Z,4.00
2023-01-29T19:09:57.785Z,4.10
2023-01-29T19:12:27.478Z,4.10
2023-01-29T19:14:54.287Z,4.10
2023-01-29T19:17:21.282Z,4.20
2023-01-29T19:19:48.011Z,4.20
2023-01-29T19:22:16.664Z,4.20
2023-01-29T19:24:44.483Z,4.20
2023-01-29T19:27:12.430Z,4.20
2023-01-29T19:29:40.451Z,4.20
2023-01-29T19:32:09.204Z,4.20
2023-01-29T19:34:35.986Z,4.20
2023-01-29T19:37:03.988Z,4.20
2023-01-29T19:39:33.808Z,4.10
2023-01-29T19:42:01.730Z,4.00
2023-01-29T19:44:28.499Z,3.90
2023-01-29T19:46:57.567Z,3.90
2023-01-29T19:49:25.305Z,4.00
2023-01-29T19:51:52.027Z,4.00
2023-01-29T19:54:20.455Z,3.90
2023-01-29T19:56:48.365Z,3.90
2023-01-29T19:59:15.092Z,3.80
2023-01-29T20:01:44.968Z,3.80
2023-01-29T20:04:11.701Z,3.80
2023-01-29T20:06:41.208Z,3.80
2023-01-29T20:09:10.054Z,3.90
2023-01-29T20:11:38.132Z,3.90
2023-01-29T20:14:07.426Z,3.90
2023-01-29T20:16:37.726Z,3.90
2023-01-29T20:19:14.172Z,3.90
2023-01-29T20:21:42.838Z,4.00
2023-01-29T20:24:13.963Z,4.10
2023-01-29T20:26:43.964Z,4.20
2023-01-29T20:29:11.528Z,4.10
2023-01-29T20:31:38.248Z,4.10
2023-01-29T20:34:04.996Z,4.10
2023-01-29T20:36:33.899Z,4.10
2023-01-29T20:39:01.816Z,4.00
2023-01-29T20:41:29.515Z,4.00
2023-01-29T20:43:56.226Z,4.00
2023-01-29T20:46:23.255Z,4.10
2023-01-29T20:48:53.226Z,4.20
2023-01-29T20:51:20.687Z,4.20
2023-01-29T20:53:49.098Z,4.30
2023-01-29T20:56:17.727Z,4.30
2023-01-29T20:58:47.020Z,4.30
2023-01-29T21:01:19.675Z,4.30
2023-01-29T21:03:47.448Z,4.40
2023-01-29T21:06:14.774Z,4.40
2023-01-29T21:08:41.969Z,4.40
2023-01-29T21:11:10.620Z,4.40
2023-01-29T21:13:37.632Z,4.40
2023-01-29T21:16:06.469Z,4.40
2023-01-29T21:18:34.975Z,4.40
2023-01-29T21:21:01.749Z,4.40
2023-01-29T21:23:30.873Z,4.50
2023-01-29T21:26:04.424Z,4.50
2023-01-29T21:28:31.349Z,4.50
2023-01-29T21:31:10.409Z,4.50
2023-01-29T21:33:38.481Z,4.60
2023-01-29T21:36:06.022Z,4.60
2023-01-29T21:38:33.612Z,4.70
2023-01-29T21:41:02.498Z,4.70
2023-01-29T21:43:30.582Z,4.60
2023-01-29T21:46:05.039Z,4.50
2023-01-29T21:48:32.142Z,4.40
2023-01-29T21:50:58.940Z,4.20
2023-01-29T21:53:25.729Z,4.10
2023-01-29T21:55:52.556Z,4.00
2023-01-29T21:58:22.233Z,3.90
2023-01-29T22:00:52.005Z,3.90
2023-01-29T22:03:19.763Z,3.90
2023-01-29T22:05:46.727Z,3.90
2023-01-29T22:08:13.532Z,3.80
2023-01-29T22:10:41.399Z,3.80
2023-01-29T22:13:08.253Z,3.80
2023-01-29T22:15:35.055Z,3.70
2023-01-29T22:18:03.300Z,3.80
2023-01-29T22:20:30.831Z,3.70
2023-01-29T22:23:00.688Z,3.70
2023-01-29T22:25:28.072Z,3.70
2023-01-29T22:27:58.343Z,3.70
2023-01-29T22:30:27.180Z,3.80
2023-01-29T22:32:53.887Z,3.90
2023-01-29T22:35:20.958Z,3.90
2023-01-29T22:37:47.683Z,4.00
2023-01-29T22:40:14.555Z,4.00
2023-01-29T22:42:43.766Z,4.10
2023-01-29T22:45:11.148Z,4.10
2023-01-29T22:47:39.461Z,4.20
2023-01-29T22:50:07.094Z,4.20
2023-01-29T22:52:38.660Z,4.20
2023-01-29T22:55:08.177Z,4.20
2023-01-29T22:57:39.273Z,4.20
2023-01-29T23:00:10.662Z,4.30
2023-01-29T23:02:37.829Z,4.30
2023-01-29T23:05:06.123Z,4.30
2023-01-29T23:07:34.215Z,4.40
2023-01-29T23:10:01.304Z,4.50
2023-01-29T23:12:29.511Z,4.50
2023-01-29T23:14:57.892Z,4.50
2023-01-29T23:17:24.686Z,4.50
2023-01-29T23:19:51.646Z,4.60
2023-01-29T23:22:19.713Z,4.60
2023-01-29T23:24:46.417Z,4.60
2023-01-29T23:27:15.963Z,4.60
2023-01-29T23:29:47.412Z,4.60
2023-01-29T23:32:17.842Z,4.50
2023-01-29T23:34:46.297Z,4.50
2023-01-29T23:37:13.309Z,4.50
2023-01-29T23:39:40.097Z,4.50
2023-01-29T23:42:06.879Z,4.50
2023-01-29T23:44:33.797Z,4.50
2023-01-29T23:47:00.619Z,4.50
2023-01-29T23:49:31.456Z,4.40
2023-01-29T23:51:58.810Z,4.40
2023-01-29T23:54:27.161Z,4.40
2023-01-29T23:56:53.881Z,4.40
2023-01-29T23:59:20.989Z,4.40
